createdAt,value
2023-03-25T00:00:16.648Z,47.46
2023-03-25T00:02:45.283Z,47.43
2023-03-25T00:05:14.858Z,47.37
2023-03-25T00:07:43.185Z,47.43
2023-03-25T00:10:11.703Z,47.21
2023-03-25T00:12:39.268Z,47.38
2023-03-25T00:15:07.853Z,47.34
2023-03-25T00:17:36.645Z,47.46
2023-03-25T00:20:10.803Z,47.26
2023-03-25T00:22:41.306Z,47.53
2023-03-25T00:25:10.727Z,47.29
2023-03-25T00:27:38.346Z,47.25
2023-03-25T00:30:06.485Z,47.37
2023-03-25T00:32:33.988Z,47.34
2023-03-25T00:35:01.308Z,47.48
2023-03-25T00:37:28.520Z,47.40
2023-03-25T00:39:55.831Z,47.49
2023-03-25T00:42:26.240Z,47.33
2023-03-25T00:44:54.151Z,47.41
2023-03-25T00:47:22.208Z,47.41
2023-03-25T00:49:50.765Z,47.21
2023-03-25T00:52:18.535Z,47.38
2023-03-25T00:54:46.323Z,47.22
2023-03-25T00:57:13.588Z,47.15
2023-03-25T00:59:41.001Z,47.13
2023-03-25T01:02:09.233Z,47.08
2023-03-25T01:04:41.637Z,47.14
2023-03-25T01:07:10.202Z,47.29
2023-03-25T01:09:38.714Z,47.33
2023-03-25T01:12:06.169Z,47.26
2023-03-25T01:14:33.329Z,47.17
2023-03-25T01:17:01.290Z,47.21
2023-03-25T01:19:28.518Z,47.19
2023-03-25T01:21:55.665Z,47.17
2023-03-25T01:24:22.841Z,47.23
2023-03-25T01:26:50.046Z,47.24
2023-03-25T01:29:19.422Z,47.29
2023-03-25T01:31:47.180Z,47.32
2023-03-25T01:34:15.376Z,47.47
2023-03-25T01:36:46.687Z,47.41
2023-03-25T01:39:16.693Z,47.04
2023-03-25T01:41:50.075Z,47.28
2023-03-25T01:44:21.856Z,47.20
2023-03-25T01:46:53.597Z,47.16
2023-03-25T01:49:30.169Z,47.24
2023-03-25T01:52:02.350Z,47.12
2023-03-25T01:54:29.762Z,47.15
2023-03-25T01:56:57.318Z,47.20
2023-03-25T01:59:27.168Z,47.29
2023-03-25T02:01:57.028Z,47.24
2023-03-25T02:05:02.363Z,47.39
2023-03-25T02:07:33.570Z,47.24
2023-03-25T02:10:07.666Z,47.38
2023-03-25T02:12:34.908Z,47.33
2023-03-25T02:15:04.966Z,47.14
2023-03-25T02:17:48.780Z,47.11
2023-03-25T02:20:15.946Z,47.21
2023-03-25T02:23:01.973Z,47.15
2023-03-25T02:26:05.606Z,47.21
2023-03-25T02:28:42.352Z,47.07
2023-03-25T02:31:28.470Z,47.33
2023-03-25T02:34:31.691Z,47.19
2023-03-25T02:37:31.323Z,47.57
2023-03-25T02:40:08.035Z,47.21
2023-03-25T02:42:42.366Z,47.19
2023-03-25T02:45:16.016Z,47.13
2023-03-25T02:47:50.840Z,47.25
2023-03-25T02:50:22.173Z,47.41
2023-03-25T02:52:52.299Z,47.18
2023-03-25T02:55:20.706Z,47.38
2023-03-25T02:57:52.557Z,47.12
2023-03-25T03:00:23.513Z,47.25
2023-03-25T03:03:01.924Z,47.12
2023-03-25T03:05:31.827Z,47.34
2023-03-25T03:08:23.558Z,47.24
2023-03-25T03:11:12.359Z,47.14
2023-03-25T03:14:13.799Z,47.34
2023-03-25T03:17:11.499Z,47.37
2023-03-25T03:19:58.432Z,47.34
2023-03-25T03:22:54.253Z,47.29
2023-03-25T03:25:33.380Z,47.26
2023-03-25T03:28:06.189Z,47.20
2023-03-25T03:30:46.400Z,47.09
2023-03-25T03:33:39.025Z,47.38
2023-03-25T03:36:13.611Z,47.22
2023-03-25T03:38:48.957Z,47.21
2023-03-25T03:41:21.566Z,47.13
2023-03-25T03:43:56.158Z,47.38
2023-03-25T03:46:37.353Z,47.23
2023-03-25T03:49:07.698Z,47.29
2023-03-25T03:51:38.452Z,47.33
2023-03-25T03:54:26.745Z,47.35
2023-03-25T03:56:58.206Z,47.42
2023-03-25T03:59:41.664Z,47.37
2023-03-25T04:02:14.984Z,47.16
2023-03-25T04:04:42.808Z,47.33
2023-03-25T04:07:15.834Z,47.44
2023-03-25T04:09:56.589Z,47.30
2023-03-25T04:12:28.235Z,47.20
2023-03-25T04:14:56.368Z,47.25
2023-03-25T04:17:24.463Z,47.34
2023-03-25T04:19:54.226Z,47.04
2023-03-25T04:22:21.827Z,47.29
2023-03-25T04:24:49.900Z,47.17
2023-03-25T04:27:18.769Z,47.01
2023-03-25T04:29:47.685Z,47.14
2023-03-25T04:32:15.068Z,46.99
2023-03-25T04:34:42.567Z,47.09
2023-03-25T04:37:09.795Z,47.21
2023-03-25T04:39:36.972Z,47.10
2023-03-25T04:42:04.175Z,47.15
2023-03-25T04:44:38.822Z,47.23
2023-03-25T04:47:14.777Z,47.19
2023-03-25T04:49:45.737Z,47.20
2023-03-25T04:52:13.410Z,47.20
2023-03-25T04:54:40.736Z,47.26
2023-03-25T04:57:10.910Z,47.12
2023-03-25T04:59:38.785Z,47.40
2023-03-25T05:02:06.744Z,47.19
2023-03-25T05:04:34.241Z,47.16
2023-03-25T05:07:02.433Z,47.36
2023-03-25T05:09:30.789Z,47.18
2023-03-25T05:11:57.951Z,47.16
2023-03-25T05:14:25.290Z,47.15
2023-03-25T05:16:52.453Z,46.99
2023-03-25T05:19:21.000Z,47.10
2023-03-25T05:21:48.559Z,47.38
2023-03-25T05:24:15.829Z,47.20
2023-03-25T05:26:43.208Z,47.17
2023-03-25T05:29:15.560Z,47.33
2023-03-25T05:31:45.563Z,47.26
2023-03-25T05:34:14.686Z,47.26
2023-03-25T05:36:42.154Z,47.06
2023-03-25T05:39:10.789Z,47.14
2023-03-25T05:41:40.756Z,47.25
2023-03-25T05:44:09.341Z,47.30
2023-03-25T05:46:36.896Z,47.22
2023-03-25T05:49:04.168Z,47.12
2023-03-25T05:51:37.280Z,47.20
2023-03-25T05:54:08.696Z,47.24
2023-03-25T05:56:36.961Z,47.24
2023-03-25T05:59:04.915Z,47.14
2023-03-25T06:01:34.108Z,46.97
2023-03-25T06:04:03.157Z,46.97
2023-03-25T06:06:31.958Z,47.16
2023-03-25T06:08:59.545Z,46.92
2023-03-25T06:11:26.753Z,47.00
2023-03-25T06:13:54.020Z,47.15
2023-03-25T06:16:23.242Z,47.02
2023-03-25T06:18:56.096Z,46.98
2023-03-25T06:21:24.194Z,46.93
2023-03-25T06:23:51.486Z,46.96
2023-03-25T06:26:21.191Z,46.84
2023-03-25T06:28:48.788Z,46.88
2023-03-25T06:31:18.406Z,46.91
2023-03-25T06:33:47.781Z,46.79
2023-03-25T06:36:18.643Z,46.88
2023-03-25T06:38:46.796Z,46.98
2023-03-25T06:41:14.110Z,46.78
2023-03-25T06:43:41.799Z,46.83
2023-03-25T06:46:09.078Z,46.99
2023-03-25T06:48:36.306Z,46.86
2023-03-25T06:51:03.502Z,46.77
2023-03-25T06:53:30.950Z,46.67
2023-03-25T06:55:58.351Z,46.34
2023-03-25T06:58:25.684Z,45.76
2023-03-25T07:00:56.207Z,45.57
2023-03-25T07:03:23.410Z,45.13
2023-03-25T07:05:50.891Z,45.08
2023-03-25T07:08:18.210Z,44.80
2023-03-25T07:10:45.428Z,44.57
2023-03-25T07:13:12.578Z,44.31
2023-03-25T07:15:39.818Z,43.94
2023-03-25T07:18:07.029Z,43.75
2023-03-25T07:20:34.272Z,43.39
2023-03-25T07:23:01.490Z,43.11
2023-03-25T07:25:28.661Z,43.15
2023-03-25T07:27:55.976Z,43.19
2023-03-25T07:30:25.320Z,42.91
2023-03-25T07:32:52.606Z,43.37
2023-03-25T07:35:20.085Z,43.61
2023-03-25T07:37:47.283Z,44.03
2023-03-25T07:40:14.515Z,44.43
2023-03-25T07:42:41.747Z,44.59
2023-03-25T07:45:09.159Z,44.89
2023-03-25T07:47:36.402Z,44.92
2023-03-25T07:50:04.187Z,44.43
2023-03-25T07:52:31.417Z,43.95
2023-03-25T07:55:00.418Z,44.05
2023-03-25T07:57:27.656Z,43.85
2023-03-25T07:59:54.925Z,43.74
2023-03-25T08:02:22.137Z,44.12
2023-03-25T08:04:49.386Z,44.07
2023-03-25T08:07:16.648Z,44.41
2023-03-25T08:09:43.872Z,44.62
2023-03-25T08:12:11.094Z,44.30
2023-03-25T08:14:38.267Z,44.48
2023-03-25T08:17:06.702Z,44.49
2023-03-25T08:19:34.415Z,44.61
2023-03-25T08:22:01.825Z,44.78
2023-03-25T08:24:30.052Z,45.09
2023-03-25T08:26:57.322Z,44.81
2023-03-25T08:29:25.216Z,44.62
2023-03-25T08:31:52.962Z,45.12
2023-03-25T08:34:22.107Z,44.78
2023-03-25T08:36:49.815Z,44.79
2023-03-25T08:39:17.098Z,44.93
2023-03-25T08:41:45.032Z,44.96
2023-03-25T08:44:12.349Z,45.25
2023-03-25T08:46:39.752Z,45.28
2023-03-25T08:49:07.034Z,45.20
2023-03-25T08:51:34.444Z,45.34
2023-03-25T08:54:01.714Z,45.18
2023-03-25T08:56:29.477Z,45.36
2023-03-25T08:58:57.131Z,45.25
2023-03-25T09:01:24.483Z,45.25
2023-03-25T09:03:52.259Z,45.29
2023-03-25T09:06:19.486Z,45.54
2023-03-25T09:08:50.148Z,45.19
2023-03-25T09:11:24.294Z,45.30
2023-03-25T09:13:57.605Z,45.48
2023-03-25T09:16:25.029Z,45.51
2023-03-25T09:18:55.472Z,45.28
2023-03-25T09:21:23.063Z,45.67
2023-03-25T09:23:50.262Z,45.62
2023-03-25T09:26:17.466Z,45.71
2023-03-25T09:28:44.669Z,45.44
2023-03-25T09:31:12.122Z,45.49
2023-03-25T09:33:39.361Z,45.42
2023-03-25T09:36:08.189Z,45.23
2023-03-25T09:38:37.678Z,45.37
2023-03-25T09:41:26.962Z,45.34
2023-03-25T09:44:00.308Z,45.29
2023-03-25T09:46:28.186Z,45.32
2023-03-25T09:48:56.497Z,45.47
2023-03-25T09:51:32.904Z,45.74
2023-03-25T09:54:02.106Z,45.70
2023-03-25T09:56:31.928Z,45.51
2023-03-25T09:59:04.378Z,44.27
2023-03-25T10:02:13.373Z,45.16
2023-03-25T10:04:48.388Z,45.22
2023-03-25T10:07:55.919Z,44.04
2023-03-25T10:10:48.417Z,44.06
2023-03-25T10:13:25.033Z,43.88
2023-03-25T10:16:26.342Z,43.67
2023-03-25T10:19:15.457Z,43.30
2023-03-25T10:22:16.410Z,43.08
2023-03-25T10:24:54.894Z,42.86
2023-03-25T10:27:33.109Z,42.51
2023-03-25T10:30:11.530Z,42.66
2023-03-25T10:32:45.645Z,43.08
2023-03-25T10:35:18.141Z,42.96
2023-03-25T10:37:47.752Z,42.85
2023-03-25T10:40:20.347Z,43.01
2023-03-25T10:42:58.661Z,43.25
2023-03-25T10:45:26.932Z,43.22
2023-03-25T10:48:02.558Z,42.80
2023-03-25T10:50:29.818Z,42.42
2023-03-25T10:52:57.420Z,41.86
2023-03-25T10:55:28.653Z,42.20
2023-03-25T10:57:56.530Z,41.94
2023-03-25T11:00:26.383Z,42.36
2023-03-25T11:02:56.121Z,42.25
2023-03-25T11:05:26.359Z,41.56
2023-03-25T11:08:08.794Z,41.89
2023-03-25T11:10:42.131Z,41.59
2023-03-25T11:13:15.035Z,41.98
2023-03-25T11:15:42.563Z,42.12
2023-03-25T11:18:27.425Z,41.81
2023-03-25T11:21:02.951Z,41.70
2023-03-25T11:23:34.103Z,41.73
2023-03-25T11:26:22.099Z,41.48
2023-03-25T11:28:50.823Z,42.17
2023-03-25T11:31:26.595Z,42.40
2023-03-25T11:34:12.680Z,42.93
2023-03-25T11:36:55.124Z,43.80
2023-03-25T11:39:39.671Z,43.88
2023-03-25T11:42:22.301Z,43.72
2023-03-25T11:44:53.985Z,43.66
2023-03-25T11:47:27.764Z,44.03
2023-03-25T11:49:55.050Z,43.82
2023-03-25T11:52:32.124Z,43.67
2023-03-25T11:55:01.721Z,43.11
2023-03-25T11:57:35.159Z,43.69
2023-03-25T12:00:27.422Z,44.39
2023-03-25T12:03:06.311Z,44.17
2023-03-25T12:05:33.603Z,44.42
2023-03-25T12:08:16.875Z,44.58
2023-03-25T12:11:09.693Z,44.49
2023-03-25T12:14:05.710Z,44.44
2023-03-25T12:17:08.350Z,44.18
2023-03-25T12:19:45.586Z,44.29
2023-03-25T12:22:12.726Z,44.18
2023-03-25T12:24:56.598Z,44.58
2023-03-25T12:27:42.411Z,44.52
2023-03-25T12:30:43.656Z,43.60
2023-03-25T12:33:28.114Z,43.29
2023-03-25T12:36:17.560Z,44.00
2023-03-25T12:39:29.346Z,43.98
2023-03-25T12:42:24.388Z,44.45
2023-03-25T12:45:26.905Z,44.49
2023-03-25T12:48:03.189Z,44.63
2023-03-25T12:50:50.099Z,44.71
2023-03-25T12:53:55.579Z,44.62
2023-03-25T12:56:44.635Z,44.44
2023-03-25T12:59:12.540Z,44.61
2023-03-25T13:01:51.359Z,44.82
2023-03-25T13:04:21.344Z,44.84
2023-03-25T13:07:10.458Z,45.00
2023-03-25T13:10:04.104Z,45.00
2023-03-25T13:12:35.180Z,45.24
2023-03-25T13:15:27.320Z,45.46
2023-03-25T13:18:40.738Z,45.42
2023-03-25T13:21:31.744Z,45.78
2023-03-25T13:24:28.964Z,44.68
2023-03-25T13:27:01.451Z,44.47
2023-03-25T13:29:40.162Z,44.64
2023-03-25T13:32:18.779Z,45.11
2023-03-25T13:35:09.326Z,45.20
2023-03-25T13:37:47.587Z,45.33
2023-03-25T13:40:28.214Z,45.95
2023-03-25T13:43:15.982Z,46.33
2023-03-25T13:45:43.766Z,47.08
2023-03-25T13:48:20.124Z,47.75
2023-03-25T13:50:47.860Z,48.11
2023-03-25T13:53:21.355Z,48.55
2023-03-25T13:56:22.130Z,49.19
2023-03-25T13:59:37.493Z,49.69
2023-03-25T14:02:17.100Z,49.88
2023-03-25T14:05:36.453Z,50.21
2023-03-25T14:08:31.363Z,50.30
2023-03-25T14:11:18.018Z,50.59
2023-03-25T14:13:52.367Z,50.90
2023-03-25T14:16:26.978Z,50.98
2023-03-25T14:19:00.808Z,51.17
2023-03-25T14:21:42.745Z,51.12
2023-03-25T14:24:27.576Z,51.21
2023-03-25T14:27:30.360Z,50.48
2023-03-25T14:30:03.342Z,50.36
2023-03-25T14:32:41.363Z,50.16
2023-03-25T14:35:31.786Z,50.01
2023-03-25T14:38:08.814Z,50.53
2023-03-25T14:40:55.476Z,50.25
2023-03-25T14:43:49.080Z,50.19
2023-03-25T14:46:23.866Z,50.04
2023-03-25T14:49:23.029Z,50.13
2023-03-25T14:51:54.551Z,50.30
2023-03-25T14:54:26.910Z,50.42
2023-03-25T14:57:08.796Z,50.27
2023-03-25T14:59:44.324Z,50.37
2023-03-25T15:02:17.621Z,50.31
2023-03-25T15:04:47.438Z,50.69
2023-03-25T15:07:20.936Z,50.92
2023-03-25T15:09:54.796Z,50.44
2023-03-25T15:12:28.195Z,50.97
2023-03-25T15:15:05.721Z,50.51
2023-03-25T15:17:47.480Z,50.67
2023-03-25T15:20:25.086Z,50.10
2023-03-25T15:23:33.538Z,50.28
2023-03-25T15:26:03.014Z,49.13
2023-03-25T15:28:53.532Z,49.11
2023-03-25T15:31:44.845Z,48.29
2023-03-25T15:34:20.603Z,48.88
2023-03-25T15:36:59.591Z,49.96
2023-03-25T15:39:32.952Z,48.01
2023-03-25T15:42:27.616Z,47.76
2023-03-25T15:45:14.484Z,47.70
2023-03-25T15:48:09.842Z,47.14
2023-03-25T15:51:00.565Z,47.20
2023-03-25T15:53:42.968Z,47.72
2023-03-25T15:56:32.474Z,47.70
2023-03-25T15:59:23.963Z,47.54
2023-03-25T16:01:52.942Z,47.63
2023-03-25T16:04:28.377Z,47.97
2023-03-25T16:06:57.241Z,48.21
2023-03-25T16:09:30.638Z,48.55
2023-03-25T16:12:02.310Z,48.28
2023-03-25T16:14:33.534Z,48.46
2023-03-25T16:17:02.374Z,48.77
2023-03-25T16:19:55.919Z,48.02
2023-03-25T16:22:28.508Z,47.88
2023-03-25T16:25:14.540Z,47.81
2023-03-25T16:27:47.282Z,48.10
2023-03-25T16:30:22.685Z,48.06
2023-03-25T16:32:51.172Z,48.33
2023-03-25T16:35:28.474Z,48.41
2023-03-25T16:37:57.989Z,48.36
2023-03-25T16:40:29.533Z,48.94
2023-03-25T16:43:20.931Z,48.78
2023-03-25T16:45:49.854Z,48.92
2023-03-25T16:48:20.894Z,49.50
2023-03-25T16:50:49.102Z,49.75
2023-03-25T16:53:18.409Z,50.16
2023-03-25T16:55:48.966Z,50.25
2023-03-25T16:58:23.706Z,50.45
2023-03-25T17:00:53.980Z,50.92
2023-03-25T17:04:30.059Z,51.10
2023-03-25T17:07:01.177Z,51.09
2023-03-25T17:09:40.104Z,51.22
2023-03-25T17:12:09.680Z,51.38
2023-03-25T17:14:47.941Z,51.65
2023-03-25T17:17:34.914Z,51.74
2023-03-25T17:20:07.439Z,51.76
2023-03-25T17:22:40.588Z,51.75
2023-03-25T17:25:32.406Z,51.66
2023-03-25T17:28:07.362Z,51.96
2023-03-25T17:30:41.830Z,51.82
2023-03-25T17:33:19.804Z,51.84
2023-03-25T17:35:53.942Z,51.80
2023-03-25T17:38:37.421Z,52.00
2023-03-25T17:41:08.755Z,52.00
2023-03-25T17:43:41.380Z,52.92
2023-03-25T17:46:09.587Z,52.40
2023-03-25T17:48:37.334Z,55.32
2023-03-25T17:51:05.703Z,52.96
2023-03-25T17:53:34.024Z,53.30
2023-03-25T17:56:06.986Z,52.83
2023-03-25T17:58:36.859Z,52.64
2023-03-25T18:01:04.380Z,52.38
2023-03-25T18:03:33.145Z,52.54
2023-03-25T18:06:00.894Z,52.66
2023-03-25T18:08:28.645Z,52.86
2023-03-25T18:10:57.513Z,53.01
2023-03-25T18:13:25.436Z,53.13
2023-03-25T18:15:54.392Z,52.63
2023-03-25T18:18:26.209Z,52.99
2023-03-25T18:20:57.360Z,53.10
2023-03-25T18:23:24.994Z,53.14
2023-03-25T18:25:52.639Z,53.37
2023-03-25T18:28:19.939Z,53.79
2023-03-25T18:30:55.185Z,54.25
2023-03-25T18:33:23.697Z,54.78
2023-03-25T18:35:53.127Z,55.06
2023-03-25T18:38:21.580Z,55.93
2023-03-25T18:40:50.110Z,56.12
2023-03-25T18:43:18.021Z,56.25
2023-03-25T18:45:45.602Z,56.89
2023-03-25T18:48:14.340Z,57.50
2023-03-25T18:50:48.416Z,57.74
2023-03-25T18:53:16.030Z,57.67
2023-03-25T18:55:43.594Z,57.51
2023-03-25T18:58:18.895Z,58.34
2023-03-25T19:00:46.983Z,58.23
2023-03-25T19:03:15.336Z,58.79
2023-03-25T19:05:43.145Z,58.16
2023-03-25T19:08:17.973Z,57.75
2023-03-25T19:10:46.160Z,57.86
2023-03-25T19:13:13.774Z,57.99
2023-03-25T19:15:41.596Z,57.93
2023-03-25T19:18:13.291Z,57.65
2023-03-25T19:20:41.379Z,57.93
2023-03-25T19:23:10.813Z,57.87
2023-03-25T19:25:38.329Z,56.84
2023-03-25T19:28:06.658Z,56.94
2023-03-25T19:30:34.221Z,56.93
2023-03-25T19:33:02.216Z,57.29
2023-03-25T19:35:29.859Z,56.97
2023-03-25T19:37:58.097Z,56.59
2023-03-25T19:40:30.216Z,56.33
2023-03-25T19:42:59.976Z,56.83
2023-03-25T19:45:30.097Z,56.39
2023-03-25T19:47:58.425Z,56.34
2023-03-25T19:50:29.921Z,56.57
2023-03-25T19:53:01.700Z,56.06
2023-03-25T19:55:30.013Z,55.61
2023-03-25T19:57:57.646Z,55.63
2023-03-25T20:00:27.949Z,55.61
2023-03-25T20:03:02.214Z,55.54
2023-03-25T20:05:32.945Z,55.33
2023-03-25T20:08:01.712Z,55.68
2023-03-25T20:10:34.357Z,55.08
2023-03-25T20:13:01.879Z,55.31
2023-03-25T20:15:33.279Z,55.09
2023-03-25T20:18:02.226Z,54.90
2023-03-25T20:20:30.582Z,54.64
2023-03-25T20:22:58.281Z,54.88
2023-03-25T20:25:29.203Z,55.03
2023-03-25T20:28:03.791Z,54.74
2023-03-25T20:30:34.905Z,54.74
2023-03-25T20:33:02.976Z,54.68
2023-03-25T20:35:32.079Z,54.57
2023-03-25T20:37:59.979Z,54.52
2023-03-25T20:40:41.584Z,54.28
2023-03-25T20:43:14.069Z,54.21
2023-03-25T20:45:43.074Z,54.30
2023-03-25T20:48:14.089Z,54.18
2023-03-25T20:50:42.507Z,53.98
2023-03-25T20:53:13.525Z,53.28
2023-03-25T20:55:42.704Z,55.81
2023-03-25T20:58:11.409Z,54.96
2023-03-25T21:00:39.485Z,54.74
2023-03-25T21:03:07.553Z,54.73
2023-03-25T21:05:35.021Z,55.02
2023-03-25T21:08:02.695Z,55.82
2023-03-25T21:10:30.541Z,56.01
2023-03-25T21:12:57.718Z,55.83
2023-03-25T21:15:24.996Z,55.91
2023-03-25T21:17:52.166Z,56.06
2023-03-25T21:20:22.086Z,55.65
2023-03-25T21:22:50.827Z,55.73
2023-03-25T21:25:18.165Z,56.11
2023-03-25T21:27:46.553Z,55.73
2023-03-25T21:30:15.097Z,55.86
2023-03-25T21:32:42.637Z,55.97
2023-03-25T21:35:10.404Z,55.82
2023-03-25T21:37:39.027Z,55.70
2023-03-25T21:40:10.035Z,55.81
2023-03-25T21:42:41.026Z,55.85
2023-03-25T21:45:10.788Z,55.84
2023-03-25T21:47:38.398Z,55.78
2023-03-25T21:50:10.380Z,55.64
2023-03-25T21:52:42.926Z,55.69
2023-03-25T21:55:11.130Z,55.61
2023-03-25T21:57:39.487Z,55.67
2023-03-25T22:00:08.500Z,55.44
2023-03-25T22:02:36.541Z,55.25
2023-03-25T22:05:04.213Z,55.47
2023-03-25T22:07:31.397Z,55.45
2023-03-25T22:09:58.761Z,55.36
2023-03-25T22:12:26.089Z,55.18
2023-03-25T22:14:53.431Z,55.40
2023-03-25T22:17:20.595Z,55.57
2023-03-25T22:19:48.816Z,55.14
2023-03-25T22:22:19.050Z,55.03
2023-03-25T22:24:47.079Z,55.10
2023-03-25T22:27:14.642Z,55.04
2023-03-25T22:29:45.434Z,54.80
2023-03-25T22:32:12.601Z,54.83
2023-03-25T22:34:40.120Z,54.65
2023-03-25T22:37:07.484Z,54.41
2023-03-25T22:39:34.651Z,54.21
2023-03-25T22:42:01.969Z,54.19
2023-03-25T22:44:29.228Z,53.97
2023-03-25T22:46:56.533Z,53.99
2023-03-25T22:49:23.945Z,54.14
2023-03-25T22:51:51.785Z,53.66
2023-03-25T22:54:19.041Z,53.51
2023-03-25T22:56:46.381Z,53.83
2023-03-25T22:59:14.503Z,53.81
2023-03-25T23:01:42.551Z,53.65
2023-03-25T23:04:10.279Z,53.52
2023-03-25T23:06:37.881Z,54.03
2023-03-25T23:09:08.024Z,54.09
2023-03-25T23:11:36.606Z,53.90
2023-03-25T23:14:09.737Z,54.10
2023-03-25T23:16:38.569Z,54.13
2023-03-25T23:19:07.097Z,54.23
2023-03-25T23:21:34.673Z,54.12
2023-03-25T23:24:03.734Z,54.30
2023-03-25T23:26:38.834Z,54.28
2023-03-25T23:29:09.937Z,54.66
2023-03-25T23:31:41.062Z,55.14
2023-03-25T23:34:11.286Z,55.11
2023-03-25T23:36:39.887Z,55.25
2023-03-25T23:39:10.231Z,55.24
2023-03-25T23:41:37.524Z,55.19
2023-03-25T23:44:05.704Z,55.16
2023-03-25T23:46:33.417Z,55.06
2023-03-25T23:49:03.760Z,55.11
2023-03-25T23:51:35.123Z,55.12
2023-03-25T23:54:02.941Z,55.12
2023-03-25T23:56:30.781Z,54.94
2023-03-25T23:58:59.938Z,55.10
